Coniston, Canada
Current Conditions -  °F | °C
As of 11:11 PM on Wednesday 28 Jan 2015 (Local Time) from CYSB Reporting Station
Overcast Overcast  
Wind Chill: -3°   Ceiling: 500
Heat Index: 12°   Visibility: 15mi
Dew Point:   Wind: 13mph
Humidity: 85%   Direction: 160°SSE
Pressure: 30.1"   Gusts: NA
Location:  46.49°N, 80.85°W
Report Text: CYSB 290411Z 16011KT 15SM BKN005 OVC140 M11/M13 A3010 RMK SF6AC2 SLP225
Loading
Personal Weather Stations






























Interactive Weather Map New forecast layout! Learn more

10-Day Weather Forecast

Advertisements
Track Severe Weather on mobile